Time;durP1;ratioP1;P1;durP2;ratioP2;P2;SDS_P1;SDS_P2;PMS_P1;PMS_P2;Temp;Humidity;BMP_temperature;BMP_pressure;BME280_temperature;BME280_humidity;BME280_pressure;Samples;Min_cycle;Max_cycle;Signal;HPM_P1;HPM_P2
2023/05/20 00:01:17;;;;;;;5.10;2.77;;;12.40;99.90;;;;;;4995706;28;20102;-65
2023/05/20 00:03:43;;;;;;;10.53;3.10;;;12.40;99.90;;;;;;4994155;28;20019;-65
2023/05/20 00:06:09;;;;;;;9.37;3.93;;;12.40;99.90;;;;;;4996080;28;20366;-65
2023/05/20 00:08:35;;;;;;;6.83;3.40;;;12.40;99.90;;;;;;4997194;28;20085;-65
2023/05/20 00:11:00;;;;;;;6.77;3.47;;;12.30;99.90;;;;;;4995389;28;20037;-65
2023/05/20 00:13:26;;;;;;;13.13;3.87;;;12.30;99.90;;;;;;4996392;28;20338;-78
2023/05/20 00:15:52;;;;;;;9.57;3.47;;;12.30;99.90;;;;;;4996005;28;20468;-65
2023/05/20 00:18:18;;;;;;;9.10;3.63;;;12.30;99.90;;;;;;4997536;28;20097;-65
2023/05/20 00:20:44;;;;;;;8.40;3.87;;;12.20;99.90;;;;;;5007924;28;20133;-65
2023/05/20 00:23:09;;;;;;;10.23;4.07;;;12.20;99.90;;;;;;4989036;28;20654;-79
2023/05/20 00:25:35;;;;;;;9.30;3.93;;;12.20;99.90;;;;;;4988757;28;20080;-65
2023/05/20 00:28:01;;;;;;;4.53;3.20;;;12.10;99.90;;;;;;4994732;28;20041;-66
2023/05/20 00:30:27;;;;;;;6.27;3.97;;;12.10;99.90;;;;;;4997009;28;20022;-65
2023/05/20 00:32:52;;;;;;;6.03;3.87;;;12.10;99.90;;;;;;4995787;28;20317;-65
2023/05/20 00:35:18;;;;;;;7.03;3.13;;;12.10;99.90;;;;;;4997083;28;20165;-65
2023/05/20 00:37:44;;;;;;;12.60;4.43;;;12.10;99.90;;;;;;4995486;28;20322;-65
2023/05/20 00:40:10;;;;;;;11.70;4.20;;;12.10;99.90;;;;;;4989622;28;20423;-79
2023/05/20 00:42:36;;;;;;;9.98;3.90;;;12.10;99.90;;;;;;4991867;28;20038;-65
2023/05/20 00:45:01;;;;;;;11.00;4.23;;;12.10;99.90;;;;;;4994848;28;20034;-65
2023/05/20 00:47:33;;;;;;;11.60;4.73;;;12.10;99.90;;;;;;4994847;28;20125;-65
2023/05/20 00:49:59;;;;;;;10.48;4.53;;;12.10;99.90;;;;;;4993587;28;20027;-66
2023/05/20 00:52:29;;;;;;;6.60;3.60;;;12.10;99.90;;;;;;4995975;28;20395;-66
2023/05/20 00:54:55;;;;;;;9.77;4.10;;;12.10;99.90;;;;;;4994750;28;20764;-65
2023/05/20 00:57:21;;;;;;;9.27;4.13;;;12.10;99.90;;;;;;4995026;28;20034;-66
2023/05/20 00:59:46;;;;;;;8.20;3.93;;;12.10;99.90;;;;;;4994277;28;20042;-66
2023/05/20 01:02:12;;;;;;;11.40;4.50;;;12.20;99.90;;;;;;4996380;28;20022;-65
2023/05/20 01:04:38;;;;;;;15.05;4.50;;;12.10;99.90;;;;;;4995406;28;20027;-65
2023/05/20 01:07:05;;;;;;;12.83;3.93;;;12.10;99.90;;;;;;4995221;28;20114;-66
2023/05/20 01:09:32;;;;;;;9.73;4.18;;;12.10;99.90;;;;;;4995291;28;20050;-65
2023/05/20 01:12:26;;;;;;;7.63;4.13;;;12.10;99.90;;;;;;4995637;28;20065;-66
2023/05/20 01:15:04;;;;;;;9.68;4.65;;;12.10;99.90;;;;;;4984726;28;20042;-65
2023/05/20 01:17:36;;;;;;;11.20;4.40;;;12.00;99.90;;;;;;4995189;28;20034;-78
2023/05/20 01:20:04;;;;;;;9.43;4.10;;;12.00;99.90;;;;;;4995870;28;20120;-66
2023/05/20 01:22:30;;;;;;;9.55;4.03;;;12.00;99.90;;;;;;4995243;28;20042;-65
2023/05/20 01:24:56;;;;;;;10.27;4.23;;;11.90;99.90;;;;;;4996064;28;20026;-79
2023/05/20 01:27:22;;;;;;;12.57;3.90;;;11.90;99.90;;;;;;4994023;28;20042;-65
2023/05/20 01:29:50;;;;;;;9.32;4.35;;;11.90;99.90;;;;;;4991297;28;20055;-65
2023/05/20 01:32:22;;;;;;;9.57;4.05;;;11.90;99.90;;;;;;4989773;28;20057;-65
2023/05/20 01:34:51;;;;;;;8.35;3.88;;;11.90;99.90;;;;;;4991869;28;20485;-65
2023/05/20 01:37:21;;;;;;;9.93;4.45;;;11.90;99.90;;;;;;4994159;28;20479;-65
2023/05/20 01:39:48;;;;;;;10.93;4.78;;;11.90;99.90;;;;;;4994546;28;20046;-66
2023/05/20 01:42:15;;;;;;;8.45;4.00;;;11.90;99.90;;;;;;4995347;28;20065;-66
2023/05/20 01:44:41;;;;;;;11.80;4.30;;;11.80;99.90;;;;;;4992922;28;20040;-65
2023/05/20 01:47:06;;;;;;;13.07;3.95;;;11.90;99.90;;;;;;4994316;28;20045;-65
2023/05/20 01:49:32;;;;;;;13.20;4.57;;;11.90;99.90;;;;;;4992680;28;20362;-66
2023/05/20 01:51:58;;;;;;;12.23;4.80;;;11.90;99.90;;;;;;4995080;28;20033;-66
2023/05/20 01:54:24;;;;;;;10.13;4.47;;;11.90;99.90;;;;;;4993437;28;20018;-65
2023/05/20 01:56:50;;;;;;;11.13;4.13;;;11.80;99.90;;;;;;4993763;28;20042;-65
2023/05/20 01:59:16;;;;;;;5.00;3.83;;;11.80;99.90;;;;;;4991490;28;20038;-65
2023/05/20 02:01:42;;;;;;;15.07;4.63;;;11.80;99.90;;;;;;5000906;28;20041;-65
2023/05/20 02:04:07;;;;;;;9.73;4.43;;;11.70;99.90;;;;;;4992900;28;20313;-65
2023/05/20 02:06:33;;;;;;;9.57;4.13;;;11.80;99.90;;;;;;4993117;28;20036;-65
2023/05/20 02:08:59;;;;;;;11.57;4.33;;;11.80;99.90;;;;;;4992399;28;20434;-65
2023/05/20 02:11:25;;;;;;;9.20;4.23;;;11.80;99.90;;;;;;4993223;28;20498;-65
2023/05/20 02:13:51;;;;;;;12.73;4.10;;;11.80;99.90;;;;;;4992961;28;20276;-78
2023/05/20 02:16:17;;;;;;;13.67;4.47;;;11.70;99.90;;;;;;4994571;28;20042;-66
2023/05/20 02:18:43;;;;;;;10.15;4.10;;;11.70;99.90;;;;;;4994879;28;20092;-65
2023/05/20 02:21:09;;;;;;;6.47;3.87;;;11.80;99.90;;;;;;4993827;28;20030;-65
2023/05/20 02:23:34;;;;;;;8.80;3.67;;;11.70;99.90;;;;;;4994139;28;20049;-80
2023/05/20 02:26:01;;;;;;;12.50;4.30;;;11.70;99.90;;;;;;4994316;28;20041;-66
2023/05/20 02:28:26;;;;;;;4.85;4.00;;;11.70;99.90;;;;;;4994559;28;20030;-66
2023/05/20 02:30:55;;;;;;;11.00;3.93;;;11.70;99.90;;;;;;4994095;28;20027;-65
2023/05/20 02:33:20;;;;;;;9.60;3.97;;;11.60;99.90;;;;;;4989020;28;20026;-65
2023/05/20 02:35:46;;;;;;;9.47;3.70;;;11.60;99.90;;;;;;4994301;28;20029;-65
2023/05/20 02:38:12;;;;;;;6.63;3.50;;;11.60;99.90;;;;;;4987142;28;20517;-65
2023/05/20 02:40:38;;;;;;;7.33;3.50;;;11.60;99.90;;;;;;4993994;28;20326;-65
2023/05/20 02:43:04;;;;;;;11.07;4.32;;;11.50;99.90;;;;;;4993214;28;20031;-65
2023/05/20 02:45:30;;;;;;;10.33;3.70;;;11.50;99.90;;;;;;4993037;28;20038;-78
2023/05/20 02:47:55;;;;;;;21.10;4.37;;;11.50;99.90;;;;;;4992573;28;20053;-65
2023/05/20 02:50:21;;;;;;;6.97;4.10;;;11.50;99.90;;;;;;4992785;28;20022;-65
2023/05/20 02:52:47;;;;;;;10.60;4.37;;;11.40;99.90;;;;;;4992746;28;20165;-65
2023/05/20 02:55:13;;;;;;;8.60;3.77;;;11.40;99.90;;;;;;4992963;28;20058;-65
2023/05/20 02:57:38;;;;;;;5.60;3.73;;;11.40;99.90;;;;;;4993534;28;20027;-65
2023/05/20 03:00:09;;;;;;;7.30;3.73;;;11.30;99.90;;;;;;4992116;28;20031;-65
2023/05/20 03:02:36;;;;;;;9.85;4.07;;;11.30;99.90;;;;;;4991907;28;20030;-79
2023/05/20 03:05:04;;;;;;;8.32;4.13;;;11.20;99.90;;;;;;4992065;28;20057;-64
2023/05/20 03:07:30;;;;;;;14.38;5.00;;;11.30;99.90;;;;;;4993362;28;20042;-65
2023/05/20 03:09:57;;;;;;;11.05;4.43;;;11.30;99.90;;;;;;4994246;28;20014;-72
2023/05/20 03:12:25;;;;;;;10.13;4.88;;;11.20;99.90;;;;;;4992982;28;20417;-65
2023/05/20 03:14:54;;;;;;;12.40;4.53;;;11.20;99.90;;;;;;4993160;28;20054;-65
2023/05/20 03:17:20;;;;;;;7.22;3.88;;;11.20;99.90;;;;;;4993466;28;20034;-65
2023/05/20 03:19:46;;;;;;;12.15;4.43;;;11.20;99.90;;;;;;4997110;28;20359;-65
2023/05/20 03:22:12;;;;;;;11.47;4.47;;;11.20;99.90;;;;;;4997409;28;20038;-65
2023/05/20 03:24:37;;;;;;;9.30;3.93;;;11.20;99.90;;;;;;4997488;28;20074;-65
2023/05/20 03:27:03;;;;;;;10.20;3.90;;;11.20;99.90;;;;;;4998015;28;20333;-64
2023/05/20 03:29:30;;;;;;;9.10;4.90;;;11.20;99.90;;;;;;4998162;28;20424;-65
2023/05/20 03:31:56;;;;;;;11.73;4.82;;;11.10;99.90;;;;;;5000778;28;20037;-66
2023/05/20 03:34:21;;;;;;;12.17;3.97;;;11.10;99.90;;;;;;4991359;28;20030;-65
2023/05/20 03:36:47;;;;;;;14.60;4.07;;;11.10;99.90;;;;;;4993660;28;20019;-66
2023/05/20 03:39:13;;;;;;;9.40;4.70;;;11.10;99.90;;;;;;4999649;28;20038;-65
2023/05/20 03:41:38;;;;;;;8.97;4.20;;;11.00;99.90;;;;;;4999445;28;20029;-65
2023/05/20 03:44:04;;;;;;;9.13;4.17;;;11.00;99.90;;;;;;4997390;28;20057;-65
2023/05/20 03:46:31;;;;;;;10.90;3.77;;;10.90;99.90;;;;;;4995939;28;20038;-65
2023/05/20 03:48:57;;;;;;;9.23;4.30;;;10.90;99.90;;;;;;4996482;28;20025;-65
2023/05/20 03:51:22;;;;;;;13.27;4.57;;;10.90;99.90;;;;;;4996859;28;20333;-65
2023/05/20 03:53:48;;;;;;;10.03;4.83;;;10.90;99.90;;;;;;4997426;28;20018;-78
2023/05/20 03:56:14;;;;;;;8.80;4.00;;;10.90;99.90;;;;;;4996565;28;20167;-64
2023/05/20 03:58:39;;;;;;;8.70;4.13;;;10.90;99.90;;;;;;4995059;28;20057;-65
2023/05/20 04:01:05;;;;;;;14.43;4.23;;;10.90;99.90;;;;;;4997083;28;20037;-64
2023/05/20 04:03:31;;;;;;;8.70;4.03;;;10.90;99.90;;;;;;4996341;28;20061;-64
2023/05/20 04:05:56;;;;;;;11.83;4.40;;;10.90;99.90;;;;;;4997650;28;20026;-64
2023/05/20 04:08:24;;;;;;;12.57;4.90;;;10.90;99.90;;;;;;4995739;28;20034;-65
2023/05/20 04:10:54;;;;;;;8.63;3.97;;;10.90;99.90;;;;;;4996792;28;20061;-79
2023/05/20 04:13:20;;;;;;;10.13;4.10;;;10.90;99.90;;;;;;5010662;28;20023;-64
2023/05/20 04:15:47;;;;;;;11.55;4.25;;;10.90;99.90;;;;;;4995616;28;20089;-66
2023/05/20 04:18:13;;;;;;;14.80;4.60;;;10.90;99.90;;;;;;4997179;28;20100;-64
2023/05/20 04:20:40;;;;;;;14.20;5.22;;;10.90;99.90;;;;;;4996169;28;20045;-65
2023/05/20 04:23:06;;;;;;;16.05;3.90;;;10.90;99.90;;;;;;4996278;28;20333;-65
2023/05/20 04:25:32;;;;;;;13.63;4.27;;;11.00;99.90;;;;;;4995823;28;20038;-64
2023/05/20 04:27:59;;;;;;;11.75;4.32;;;11.00;99.90;;;;;;4996273;28;20137;-65
2023/05/20 04:30:24;;;;;;;;;;;11.10;99.90;;;;;;4994690;28;20035;-64
2023/05/20 04:32:50;;;;;;;15.10;4.33;;;11.10;99.90;;;;;;4996586;28;20217;-64
2023/05/20 04:35:16;;;;;;;11.93;4.60;;;11.10;99.90;;;;;;4996079;28;20796;-66
2023/05/20 04:37:49;;;;;;;12.63;4.40;;;11.10;99.90;;;;;;4996042;28;20445;-65
2023/05/20 04:40:15;;;;;;;15.95;4.57;;;11.20;99.90;;;;;;4995113;28;20121;-65
2023/05/20 04:42:43;;;;;;;10.20;4.18;;;11.20;99.90;;;;;;4995809;28;20322;-65
2023/05/20 04:45:09;;;;;;;10.20;4.18;;;11.20;99.90;;;;;;4996476;28;20041;-65
2023/05/20 04:47:37;;;;;;;12.40;4.32;;;11.30;99.90;;;;;;4996576;28;20038;-65
2023/05/20 04:50:07;;;;;;;10.90;3.60;;;11.30;99.90;;;;;;4995635;28;20319;-65
2023/05/20 04:52:33;;;;;;;7.90;3.85;;;11.30;99.90;;;;;;4999275;28;20033;-66
2023/05/20 04:55:01;;;;;;;10.17;4.10;;;11.40;99.90;;;;;;4994834;28;20038;-65
2023/05/20 04:57:27;;;;;;;5.68;3.40;;;11.40;99.90;;;;;;5011464;28;20491;-64
2023/05/20 04:59:57;;;;;;;13.47;4.03;;;11.40;99.90;;;;;;4994948;28;20026;-65
2023/05/20 05:02:23;;;;;;;8.48;3.90;;;11.40;99.90;;;;;;4994718;28;20054;-65
2023/05/20 05:04:49;;;;;;;6.85;3.50;;;11.40;99.90;;;;;;4994897;28;20045;-65
2023/05/20 05:07:15;;;;;;;13.33;4.40;;;11.40;99.90;;;;;;4995315;28;20042;-66
2023/05/20 05:09:41;;;;;;;9.43;4.43;;;11.50;99.90;;;;;;4996026;28;20097;-64
2023/05/20 05:12:06;;;;;;;7.63;4.40;;;11.60;99.90;;;;;;4995254;28;20022;-65
2023/05/20 05:14:32;;;;;;;8.13;4.20;;;11.70;99.90;;;;;;4995738;28;20299;-65
2023/05/20 05:16:58;;;;;;;9.83;3.93;;;11.70;99.90;;;;;;4993540;28;20022;-64
2023/05/20 05:19:23;;;;;;;7.17;3.60;;;11.70;99.90;;;;;;4995757;28;20045;-65
2023/05/20 05:21:50;;;;;;;15.37;4.33;;;11.80;99.90;;;;;;4995177;28;20436;-64
2023/05/20 05:24:15;;;;;;;8.40;3.85;;;11.90;99.90;;;;;;4994560;28;20418;-65
2023/05/20 05:26:41;;;;;;;8.97;4.13;;;11.90;99.90;;;;;;4993424;28;20277;-65
2023/05/20 05:29:07;;;;;;;7.77;3.60;;;11.90;99.90;;;;;;4994741;28;20022;-65
2023/05/20 05:31:33;;;;;;;11.67;4.20;;;11.90;99.90;;;;;;4996210;28;20469;-64
2023/05/20 05:33:58;;;;;;;5.43;3.40;;;11.90;99.90;;;;;;4995187;28;20026;-65
2023/05/20 05:36:27;;;;;;;7.97;3.87;;;12.00;99.90;;;;;;4994538;28;20065;-64
2023/05/20 05:38:52;;;;;;;6.95;3.45;;;12.10;99.90;;;;;;4994845;28;20034;-65
2023/05/20 05:41:18;;;;;;;11.47;3.67;;;12.10;99.90;;;;;;4994328;28;20026;-65
2023/05/20 05:43:43;;;;;;;9.20;3.80;;;12.20;99.90;;;;;;4995283;28;20105;-65
2023/05/20 05:46:09;;;;;;;8.53;3.83;;;12.30;99.90;;;;;;4994996;28;20041;-65
2023/05/20 05:48:36;;;;;;;8.10;3.70;;;12.40;99.90;;;;;;4993210;28;20078;-65
2023/05/20 05:51:01;;;;;;;9.00;3.85;;;12.50;99.90;;;;;;4994716;28;20026;-65
2023/05/20 05:53:27;;;;;;;11.83;3.90;;;12.60;99.90;;;;;;4986573;28;20089;-64
2023/05/20 05:55:53;;;;;;;7.03;3.57;;;12.70;99.90;;;;;;4996649;28;20030;-65
2023/05/20 05:58:19;;;;;;;10.30;4.00;;;12.70;99.90;;;;;;5009250;28;20027;-65
2023/05/20 06:00:44;;;;;;;7.90;3.53;;;12.80;99.90;;;;;;4994113;28;20033;-65
2023/05/20 06:03:10;;;;;;;10.77;3.70;;;12.80;99.90;;;;;;4994427;28;20165;-65
2023/05/20 06:05:36;;;;;;;7.00;3.67;;;12.90;99.90;;;;;;5007586;28;20318;-65
2023/05/20 06:08:01;;;;;;;6.27;3.10;;;12.90;99.90;;;;;;4994315;28;20061;-66
2023/05/20 06:10:27;;;;;;;7.70;3.57;;;12.90;99.90;;;;;;4994772;28;20096;-65
2023/05/20 06:12:53;;;;;;;6.47;3.67;;;12.90;99.90;;;;;;4995068;28;20027;-65
2023/05/20 06:15:18;;;;;;;9.93;3.70;;;13.00;99.90;;;;;;4992709;28;20046;-65
2023/05/20 06:17:44;;;;;;;7.87;3.30;;;13.00;99.90;;;;;;4994512;28;20101;-67
2023/05/20 06:20:10;;;;;;;6.53;3.43;;;13.10;99.90;;;;;;4998346;28;20322;-65
2023/05/20 06:22:36;;;;;;;4.63;3.60;;;13.20;99.90;;;;;;4994231;28;20132;-65
2023/05/20 06:25:02;;;;;;;5.97;3.73;;;13.20;99.90;;;;;;4990201;28;20452;-65
2023/05/20 06:27:29;;;;;;;7.88;3.67;;;13.30;99.90;;;;;;4980642;28;20507;-66
2023/05/20 06:29:55;;;;;;;8.47;3.37;;;13.30;99.90;;;;;;4994741;28;20026;-65
2023/05/20 06:32:20;;;;;;;5.47;2.97;;;13.30;99.90;;;;;;4993366;28;20122;-66
2023/05/20 06:34:46;;;;;;;8.73;3.90;;;13.40;99.90;;;;;;4998200;28;20069;-65
2023/05/20 06:37:12;;;;;;;8.97;4.40;;;13.50;99.90;;;;;;4994171;28;20034;-65
2023/05/20 06:39:38;;;;;;;3.87;2.90;;;13.50;99.90;;;;;;5009721;28;20073;-65
2023/05/20 06:42:04;;;;;;;13.52;3.17;;;13.50;99.90;;;;;;4992697;28;20311;-66
2023/05/20 06:44:30;;;;;;;6.70;3.33;;;13.60;99.90;;;;;;4991822;28;20049;-65
2023/05/20 06:46:56;;;;;;;8.77;3.67;;;13.70;99.90;;;;;;4993978;28;20117;-66
2023/05/20 06:49:22;;;;;;;11.27;3.87;;;13.80;99.90;;;;;;5000910;28;20118;-65
2023/05/20 06:51:49;;;;;;;4.63;2.97;;;13.80;99.90;;;;;;4992205;28;20058;-66
2023/05/20 06:54:15;;;;;;;7.78;3.30;;;13.80;99.90;;;;;;4999693;28;20022;-66
2023/05/20 06:56:40;;;;;;;6.40;3.27;;;13.90;99.90;;;;;;4999664;28;20026;-65
2023/05/20 06:59:06;;;;;;;6.47;3.57;;;13.90;99.90;;;;;;5000477;28;20026;-65
2023/05/20 07:01:32;;;;;;;10.10;3.80;;;14.00;99.90;;;;;;4998281;28;20062;-66
2023/05/20 07:03:58;;;;;;;5.50;3.17;;;14.00;99.90;;;;;;4998905;28;20153;-65
2023/05/20 07:06:23;;;;;;;9.07;3.57;;;14.10;99.90;;;;;;4999713;28;20072;-66
2023/05/20 07:08:49;;;;;;;6.60;3.00;;;14.20;99.90;;;;;;5000406;28;20584;-67
2023/05/20 07:11:15;;;;;;;5.23;2.90;;;14.20;99.90;;;;;;5004994;28;20032;-66
2023/05/20 07:13:41;;;;;;;7.27;3.00;;;14.30;99.90;;;;;;4999783;28;20428;-66
2023/05/20 07:16:06;;;;;;;10.17;3.97;;;14.30;99.90;;;;;;4997775;28;20046;-66
2023/05/20 07:18:32;;;;;;;7.13;2.63;;;14.40;99.90;;;;;;5000060;28;20670;-65
2023/05/20 07:20:58;;;;;;;6.13;3.60;;;14.50;99.90;;;;;;5000591;28;20034;-65
2023/05/20 07:23:23;;;;;;;6.57;3.50;;;14.60;99.90;;;;;;4999574;28;20030;-65
2023/05/20 07:25:50;;;;;;;6.40;3.23;;;14.60;99.90;;;;;;5014406;28;20108;-65
2023/05/20 07:28:16;;;;;;;5.35;3.20;;;14.70;99.90;;;;;;5000472;28;20026;-65
2023/05/20 07:30:48;;;;;;;4.25;2.47;;;14.80;99.90;;;;;;4999848;28;20029;-66
2023/05/20 07:33:17;;;;;;;4.90;2.75;;;15.00;99.90;;;;;;4999360;28;20314;-66
2023/05/20 07:35:44;;;;;;;4.15;2.28;;;15.10;99.90;;;;;;4999397;28;20084;-66
2023/05/20 07:38:12;;;;;;;6.72;3.05;;;15.20;99.90;;;;;;4998316;28;20061;-65
2023/05/20 07:40:40;;;;;;;7.03;2.85;;;15.40;99.90;;;;;;5000138;28;20330;-65
2023/05/20 07:43:07;;;;;;;4.75;2.30;;;15.50;99.90;;;;;;5000318;28;20105;-65
2023/05/20 07:45:35;;;;;;;5.13;2.75;;;15.50;99.90;;;;;;5002568;28;20028;-66
2023/05/20 07:48:01;;;;;;;4.78;2.30;;;15.70;99.90;;;;;;5008102;28;20036;-65
2023/05/20 07:50:27;;;;;;;3.10;2.17;;;15.70;99.90;;;;;;5003943;28;20026;-66
2023/05/20 07:52:52;;;;;;;4.20;1.87;;;15.80;99.90;;;;;;4992903;28;20034;-65
2023/05/20 07:55:18;;;;;;;5.70;2.53;;;15.90;99.90;;;;;;5006956;28;20031;-66
2023/05/20 07:57:44;;;;;;;4.30;2.20;;;16.10;99.90;;;;;;5001874;28;20065;-67
2023/05/20 08:00:11;;;;;;;4.47;1.87;;;16.20;99.90;;;;;;5010290;28;20384;-66
2023/05/20 08:02:37;;;;;;;5.03;2.47;;;16.20;99.90;;;;;;5004049;28;20545;-65
2023/05/20 08:05:04;;;;;;;5.18;2.15;;;16.30;99.90;;;;;;5002276;28;20325;-65
2023/05/20 08:07:29;;;;;;;5.07;1.98;;;16.50;99.90;;;;;;5002210;28;20050;-66
2023/05/20 08:09:56;;;;;;;3.73;2.03;;;16.60;99.90;;;;;;4995405;28;20457;-66
2023/05/20 08:12:22;;;;;;;4.57;2.00;;;16.70;99.90;;;;;;5003549;28;20029;-65
2023/05/20 08:14:48;;;;;;;3.70;2.43;;;16.90;99.90;;;;;;4996107;28;20038;-66
2023/05/20 08:17:14;;;;;;;2.80;1.83;;;17.00;99.90;;;;;;5005590;28;20026;-66
2023/05/20 08:19:39;;;;;;;5.07;2.25;;;17.00;99.90;;;;;;5002307;28;20299;-67
2023/05/20 08:22:06;;;;;;;5.60;2.13;;;17.10;99.90;;;;;;4987945;28;20417;-67
2023/05/20 08:24:31;;;;;;;3.30;1.73;;;17.20;99.90;;;;;;4998781;28;20518;-67
2023/05/20 08:26:57;;;;;;;7.17;1.97;;;17.20;99.90;;;;;;5003311;28;20041;-67
2023/05/20 08:29:23;;;;;;;3.60;1.70;;;17.30;99.90;;;;;;5005404;28;20094;-67
2023/05/20 08:31:49;;;;;;;4.50;1.80;;;17.40;99.90;;;;;;4995884;28;20019;-68
2023/05/20 08:34:14;;;;;;;3.13;1.67;;;17.40;99.90;;;;;;5004032;28;20350;-67
2023/05/20 08:36:41;;;;;;;3.47;1.80;;;17.40;99.90;;;;;;4996395;28;20026;-68
2023/05/20 08:39:06;;;;;;;2.45;1.48;;;17.60;99.90;;;;;;5004979;28;20014;-65
2023/05/20 08:41:32;;;;;;;6.20;2.10;;;17.70;99.90;;;;;;5001809;28;20077;-67
2023/05/20 08:44:01;;;;;;;2.50;1.43;;;17.80;99.90;;;;;;4996155;28;20026;-67
2023/05/20 08:46:27;;;;;;;2.80;2.05;;;17.80;99.90;;;;;;5010619;28;20080;-66
2023/05/20 08:48:52;;;;;;;3.40;1.87;;;17.80;99.90;;;;;;5002837;28;20030;-67
2023/05/20 08:51:22;;;;;;;3.60;1.90;;;17.90;99.90;;;;;;4999632;28;20026;-67
2023/05/20 08:53:48;;;;;;;4.20;1.80;;;17.90;99.90;;;;;;4996208;28;20400;-66
2023/05/20 08:56:15;;;;;;;1.25;1.02;;;17.90;99.90;;;;;;4995266;28;20026;-67
2023/05/20 08:58:42;;;;;;;2.40;1.50;;;17.90;99.90;;;;;;4996288;28;20029;-67
2023/05/20 09:01:08;;;;;;;3.13;1.17;;;17.90;99.90;;;;;;4996126;28;20037;-67
2023/05/20 09:03:34;;;;;;;8.38;1.58;;;17.90;99.90;;;;;;4995514;28;20030;-69
2023/05/20 09:06:07;;;;;;;1.00;0.53;;;18.00;99.90;;;;;;4995639;28;20033;-67
2023/05/20 09:08:33;;;;;;;4.03;1.80;;;17.90;99.90;;;;;;4993169;28;20032;-67
2023/05/20 09:10:59;;;;;;;2.08;1.70;;;17.90;99.90;;;;;;5002384;28;20093;-68
2023/05/20 09:13:28;;;;;;;4.78;1.58;;;17.90;99.90;;;;;;5008387;28;20031;-67
2023/05/20 09:15:54;;;;;;;7.00;2.10;;;18.10;99.90;;;;;;5010727;28;20046;-68
2023/05/20 09:18:19;;;;;;;2.27;1.50;;;18.10;99.90;;;;;;4991273;28;20036;-67
2023/05/20 09:20:51;;;;;;;2.57;1.20;;;18.30;99.90;;;;;;5002403;28;20471;-67
2023/05/20 09:23:20;;;;;;;3.83;1.83;;;18.20;99.90;;;;;;4998585;28;20034;-67
2023/05/20 09:25:52;;;;;;;3.42;1.50;;;18.10;99.90;;;;;;4998853;28;20033;-68
2023/05/20 09:28:23;;;;;;;2.38;1.33;;;18.30;99.90;;;;;;4998481;28;20066;-69
2023/05/20 09:30:50;;;;;;;4.07;1.35;;;18.50;99.90;;;;;;5005884;28;20023;-68
2023/05/20 09:33:17;;;;;;;1.85;1.30;;;18.40;99.90;;;;;;5005951;28;20287;-67
2023/05/20 09:35:43;;;;;;;2.70;1.52;;;18.30;99.90;;;;;;5008535;28;20352;-67
2023/05/20 09:38:11;;;;;;;2.60;1.08;;;18.30;99.90;;;;;;5017021;28;20030;-67
2023/05/20 09:40:40;;;;;;;2.72;1.40;;;18.40;99.90;;;;;;4995768;28;20328;-67
2023/05/20 09:43:07;;;;;;;2.22;1.00;;;18.50;99.90;;;;;;4996528;28;20026;-68
2023/05/20 09:45:33;;;;;;;2.08;1.15;;;18.50;99.90;;;;;;4995297;28;20072;-68
2023/05/20 09:48:01;;;;;;;7.70;2.83;;;18.50;99.90;;;;;;4994519;28;20260;-66
2023/05/20 09:50:27;;;;;;;6.80;2.40;;;18.40;99.90;;;;;;4994781;28;20562;-67
2023/05/20 09:52:54;;;;;;;7.00;2.95;;;18.30;99.90;;;;;;4992272;28;20109;-67
2023/05/20 09:55:23;;;;;;;6.50;3.00;;;18.00;99.90;;;;;;5002538;28;20030;-66
2023/05/20 09:57:48;;;;;;;3.97;1.70;;;17.80;99.90;;;;;;4996852;28;20022;-67
2023/05/20 10:00:18;;;;;;;3.67;2.60;;;17.70;99.90;;;;;;5003940;28;20068;-66
2023/05/20 10:02:46;;;;;;;7.97;2.80;;;17.50;99.90;;;;;;5012754;28;20034;-67
2023/05/20 10:05:20;;;;;;;4.03;1.90;;;17.50;99.90;;;;;;5006790;28;20028;-66
2023/05/20 10:08:20;;;;;;;10.63;3.58;;;17.40;99.90;;;;;;5004209;28;20026;-66
2023/05/20 10:10:55;;;;;;;4.22;2.72;;;17.60;99.90;;;;;;5001081;28;20018;-67
2023/05/20 10:13:55;;;;;;;4.28;2.60;;;17.80;99.90;;;;;;5003769;28;20114;-66
2023/05/20 10:16:56;;;;;;;8.35;2.67;;;17.90;99.90;;;;;;4994784;28;20341;-67
2023/05/20 10:19:32;;;;;;;4.28;2.60;;;18.00;99.90;;;;;;5001158;28;20117;-67
2023/05/20 10:22:03;;;;;;;5.15;2.40;;;18.10;99.90;;;;;;4995934;28;20035;-68
2023/05/20 10:24:37;;;;;;;3.75;2.05;;;18.10;99.90;;;;;;5004243;28;20030;-67
2023/05/20 10:27:06;;;;;;;3.65;2.45;;;18.20;99.90;;;;;;4995298;28;20038;-67
2023/05/20 10:29:49;;;;;;;8.00;2.60;;;17.90;99.90;;;;;;4998133;28;20038;-67
2023/05/20 10:32:28;;;;;;;6.30;2.40;;;17.70;99.90;;;;;;5001981;28;20106;-67
2023/05/20 10:35:07;;;;;;;4.43;2.78;;;17.90;99.90;;;;;;4993233;28;20034;-66
2023/05/20 10:37:49;;;;;;;2.85;1.45;;;17.90;99.90;;;;;;4995202;28;20032;-68
2023/05/20 10:40:17;;;;;;;2.90;1.40;;;18.10;99.90;;;;;;5010262;28;20099;-67
2023/05/20 10:42:43;;;;;;;4.03;2.25;;;18.60;99.90;;;;;;4996756;28;20026;-67
2023/05/20 10:45:10;;;;;;;3.38;1.63;;;18.80;99.90;;;;;;4992679;28;20488;-68
2023/05/20 10:47:40;;;;;;;3.70;1.88;;;18.60;99.90;;;;;;4993610;28;20038;-67
2023/05/20 10:50:06;;;;;;;9.18;2.65;;;18.30;99.90;;;;;;4980985;28;20027;-67
2023/05/20 10:52:35;;;;;;;3.30;2.47;;;18.00;99.90;;;;;;4994122;28;20031;-67
2023/05/20 10:55:02;;;;;;;2.88;1.35;;;17.80;99.90;;;;;;4991485;28;20441;-68
2023/05/20 10:57:28;;;;;;;;;;;17.90;99.90;;;;;;5009350;28;20023;-67
2023/05/20 10:59:54;;;;;;;5.07;1.60;;;18.00;99.90;;;;;;4990688;28;19964;-67
2023/05/20 11:02:25;;;;;;;3.17;2.22;;;18.10;99.90;;;;;;4994427;28;20076;-67
2023/05/20 11:04:57;;;;;;;2.90;1.70;;;18.30;99.90;;;;;;4992924;28;20109;-66
2023/05/20 11:07:31;;;;;;;2.53;1.70;;;18.70;99.90;;;;;;4993029;28;20080;-68
2023/05/20 11:09:58;;;;;;;3.83;1.83;;;19.10;99.90;;;;;;4992092;28;20106;-67
2023/05/20 11:12:25;;;;;;;2.45;1.60;;;19.10;99.90;;;;;;4993137;28;20105;-67
2023/05/20 11:14:51;;;;;;;1.95;1.33;;;18.80;99.90;;;;;;4993440;28;20042;-68
2023/05/20 11:17:18;;;;;;;4.20;1.75;;;18.60;99.90;;;;;;4980084;28;20109;-67
2023/05/20 11:19:44;;;;;;;3.28;1.77;;;18.40;99.90;;;;;;4993622;28;20038;-67
2023/05/20 11:22:10;;;;;;;2.17;1.73;;;18.50;99.90;;;;;;4992341;28;20030;-67
2023/05/20 11:24:36;;;;;;;14.73;2.30;;;18.80;99.90;;;;;;4993170;28;20050;-67
2023/05/20 11:27:03;;;;;;;2.28;1.30;;;18.90;99.90;;;;;;5008135;28;20137;-67
2023/05/20 11:29:31;;;;;;;1.92;1.40;;;18.90;99.90;;;;;;4992602;28;20026;-68
2023/05/20 11:31:58;;;;;;;2.17;1.20;;;18.90;99.90;;;;;;4993477;28;20106;-68
2023/05/20 11:34:23;;;;;;;4.22;1.20;;;19.10;99.90;;;;;;4992699;28;20037;-68
2023/05/20 11:36:59;;;;;;;1.70;1.30;;;19.30;99.90;;;;;;4994313;28;20026;-68
2023/05/20 11:39:30;;;;;;;3.83;1.20;;;19.50;99.90;;;;;;4981971;28;20027;-67
2023/05/20 11:41:57;;;;;;;2.85;1.70;;;19.50;99.90;;;;;;4998204;28;20029;-68
2023/05/20 11:44:24;;;;;;;3.97;1.40;;;19.50;99.90;;;;;;4996990;28;20026;-67
2023/05/20 11:46:49;;;;;;;5.22;1.90;;;19.50;99.90;;;;;;4997639;28;20038;-68
2023/05/20 11:49:16;;;;;;;2.13;1.27;;;19.40;99.90;;;;;;4993450;28;20436;-71
2023/05/20 11:51:44;;;;;;;3.05;1.50;;;19.20;99.90;;;;;;4995382;28;20420;-68
2023/05/20 11:54:10;;;;;;;10.98;2.10;;;19.20;99.90;;;;;;4996015;28;20054;-70
2023/05/20 11:56:37;;;;;;;3.83;1.73;;;19.30;99.90;;;;;;4992674;28;20096;-68
2023/05/20 11:59:05;;;;;;;3.65;1.77;;;19.50;99.90;;;;;;4996569;28;20027;-69
2023/05/20 12:01:39;;;;;;;6.80;1.90;;;19.90;99.90;;;;;;4995207;28;20031;-70
2023/05/20 12:04:09;;;;;;;4.97;1.70;;;20.10;99.90;;;;;;4996524;28;20094;-67
2023/05/20 12:06:38;;;;;;;1.90;1.23;;;19.80;99.90;;;;;;4993418;28;20029;-68
2023/05/20 12:09:06;;;;;;;5.75;1.88;;;19.80;99.90;;;;;;4995983;28;20022;-67
2023/05/20 12:11:43;;;;;;;5.55;1.60;;;20.00;99.90;;;;;;4987475;28;20125;-67
2023/05/20 12:14:09;;;;;;;2.55;1.38;;;20.30;99.90;;;;;;4991841;28;20505;-78
2023/05/20 12:16:36;;;;;;;6.63;1.70;;;20.40;99.90;;;;;;4994682;28;20062;-77
2023/05/20 12:19:02;;;;;;;2.67;1.35;;;20.40;99.90;;;;;;4995428;28;20034;-79
2023/05/20 12:21:30;;;;;;;4.28;1.80;;;20.50;99.90;;;;;;4994507;28;20080;-78
2023/05/20 12:23:56;;;;;;;4.78;1.65;;;20.40;99.90;;;;;;4995171;28;20037;-81
2023/05/20 12:26:27;;;;;;;1.80;1.58;;;20.30;99.90;;;;;;4996680;28;20024;-76
2023/05/20 12:28:53;;;;;;;2.13;1.38;;;20.20;99.90;;;;;;4996078;28;20049;-68
2023/05/20 12:31:19;;;;;;;6.50;1.83;;;20.20;99.90;;;;;;4987594;28;20105;-79
2023/05/20 12:33:45;;;;;;;4.23;1.80;;;20.20;99.90;;;;;;4991173;28;20122;-76
2023/05/20 12:36:11;;;;;;;4.87;1.90;;;20.10;99.90;;;;;;4996321;28;20263;-82
2023/05/20 12:38:37;;;;;;;3.38;1.85;;;19.90;99.90;;;;;;4995363;28;20023;-78
2023/05/20 12:41:03;;;;;;;2.47;1.60;;;20.00;99.90;;;;;;4996689;28;20045;-69
2023/05/20 12:43:29;;;;;;;3.33;1.70;;;20.10;99.90;;;;;;4995637;28;20022;-67
2023/05/20 12:45:55;;;;;;;4.32;2.05;;;20.10;99.90;;;;;;4996578;28;20045;-85